createdAt,value
2017-12-05T00:00:06.899Z,1.47
2017-12-05T00:01:07.132Z,1.54
2017-12-05T00:02:06.847Z,1.47
2017-12-05T00:03:07.095Z,1.47
2017-12-05T00:04:06.860Z,1.57
2017-12-05T00:05:07.334Z,1.46
2017-12-05T00:06:06.772Z,1.57
2017-12-05T00:07:07.319Z,1.56
2017-12-05T00:08:07.293Z,1.54
2017-12-05T00:09:06.742Z,1.42
2017-12-05T00:10:06.704Z,1.48
2017-12-05T00:11:06.960Z,1.58
2017-12-05T00:12:06.943Z,1.47
2017-12-05T00:13:06.947Z,1.5
2017-12-05T00:14:06.906Z,1.57
2017-12-05T00:15:06.892Z,1.48
2017-12-05T00:16:06.602Z,1.51
2017-12-05T00:17:06.877Z,1.6
2017-12-05T00:18:06.839Z,1.48
2017-12-05T00:19:07.098Z,1.64
2017-12-05T00:20:06.800Z,1.53
2017-12-05T00:21:06.785Z,1.42
2017-12-05T00:22:06.779Z,1.48
2017-12-05T00:23:06.813Z,1.51
2017-12-05T00:24:06.755Z,1.53
2017-12-05T00:25:06.988Z,1.39
2017-12-05T00:26:06.436Z,1.44
2017-12-05T00:27:06.410Z,1.39
2017-12-05T00:28:06.668Z,1.47
2017-12-05T00:29:06.379Z,1.4
2017-12-05T00:30:07.098Z,1.53
2017-12-05T00:31:06.616Z,1.46
2017-12-05T00:32:06.325Z,1.53
2017-12-05T00:33:06.319Z,1.42
2017-12-05T00:34:06.603Z,1.39
2017-12-05T00:35:06.563Z,1.54
2017-12-05T00:36:06.525Z,1.51
2017-12-05T00:37:06.509Z,1.51
2017-12-05T00:38:06.514Z,1.47
2017-12-05T00:39:06.475Z,1.46
2017-12-05T00:40:06.460Z,1.44
2017-12-05T00:41:06.184Z,1.39
2017-12-05T00:42:06.709Z,1.42
2017-12-05T00:43:06.405Z,1.36
2017-12-05T00:44:06.136Z,1.33
2017-12-05T00:45:06.665Z,1.35
2017-12-05T00:46:06.354Z,1.38
2017-12-05T00:47:06.631Z,1.39
2017-12-05T00:48:06.340Z,1.39
2017-12-05T00:49:06.030Z,1.38
2017-12-05T00:50:06.012Z,1.39
2017-12-05T00:51:06.269Z,1.36
2017-12-05T00:52:06.251Z,1.39
2017-12-05T00:53:06.244Z,1.42
2017-12-05T00:54:05.946Z,1.35
2017-12-05T00:55:06.219Z,1.4
2017-12-05T00:56:05.910Z,1.44
2017-12-05T00:57:05.904Z,1.33
2017-12-05T00:58:06.147Z,1.42
2017-12-05T00:59:06.127Z,1.4
2017-12-05T01:00:06.137Z,1.36
2017-12-05T01:01:05.825Z,1.39
2017-12-05T01:02:05.804Z,1.38
2017-12-05T01:03:06.060Z,1.39
2017-12-05T01:04:06.313Z,1.4
2017-12-05T01:05:05.754Z,1.35
2017-12-05T01:06:06.279Z,1.35
2017-12-05T01:07:05.995Z,1.33
2017-12-05T01:08:06.251Z,1.36
2017-12-05T01:09:05.971Z,1.44
2017-12-05T01:10:05.969Z,1.42
2017-12-05T01:11:05.658Z,1.44
2017-12-05T01:12:05.913Z,1.46
2017-12-05T01:13:05.624Z,1.38
2017-12-05T01:14:05.599Z,1.48
2017-12-05T01:15:06.131Z,1.48
2017-12-05T01:16:05.840Z,1.44
2017-12-05T01:17:06.091Z,1.38
2017-12-05T01:18:05.528Z,1.48
2017-12-05T01:19:05.802Z,1.44
2017-12-05T01:20:05.495Z,1.48
2017-12-05T01:21:05.749Z,1.54
2017-12-05T01:22:06.012Z,1.5
2017-12-05T01:23:05.716Z,1.54
2017-12-05T01:24:05.718Z,1.48
2017-12-05T01:25:05.408Z,1.53
2017-12-05T01:26:05.394Z,1.51
2017-12-05T01:27:05.926Z,1.54
2017-12-05T01:28:05.380Z,1.47
2017-12-05T01:29:05.635Z,1.46
2017-12-05T01:30:05.602Z,1.47
2017-12-05T01:31:05.577Z,1.4
2017-12-05T01:32:05.577Z,1.47
2017-12-05T01:33:05.557Z,1.44
2017-12-05T01:34:05.255Z,1.51
2017-12-05T01:35:05.778Z,1.5
2017-12-05T01:36:05.238Z,1.44
2017-12-05T01:37:05.474Z,1.56
2017-12-05T01:38:05.185Z,1.42
2017-12-05T01:39:05.770Z,1.53
2017-12-05T01:40:05.421Z,1.42
2017-12-05T01:41:05.696Z,1.44
2017-12-05T01:42:05.114Z,1.48
2017-12-05T01:43:05.369Z,1.44
2017-12-05T01:44:05.352Z,1.44
2017-12-05T01:45:05.064Z,1.58
2017-12-05T01:46:05.319Z,1.56
2017-12-05T01:47:05.034Z,1.47
2017-12-05T01:48:05.304Z,1.47
2017-12-05T01:49:05.278Z,1.48
2017-12-05T01:50:05.251Z,1.53
2017-12-05T01:51:05.237Z,1.38
2017-12-05T01:52:04.941Z,1.5
2017-12-05T01:53:04.926Z,1.56
2017-12-05T01:54:04.905Z,1.5
2017-12-05T01:55:04.889Z,1.42
2017-12-05T01:56:05.143Z,1.39
2017-12-05T01:57:05.412Z,1.39
2017-12-05T01:58:05.106Z,1.53
2017-12-05T01:59:05.425Z,1.51
2017-12-05T02:00:04.805Z,1.51
2017-12-05T02:01:04.790Z,1.44
2017-12-05T02:02:05.038Z,1.48
2017-12-05T02:03:04.752Z,1.51
2017-12-05T02:04:05.007Z,1.46
2017-12-05T02:05:04.731Z,1.5
2017-12-05T02:06:04.701Z,1.48
2017-12-05T02:07:05.222Z,1.44
2017-12-05T02:08:04.665Z,1.5
2017-12-05T02:09:04.646Z,1.5
2017-12-05T02:10:04.628Z,1.48
2017-12-05T02:11:04.899Z,1.42
2017-12-05T02:12:04.598Z,1.47
2017-12-05T02:13:04.847Z,1.48
2017-12-05T02:14:04.829Z,1.42
2017-12-05T02:15:04.825Z,1.35
2017-12-05T02:16:04.797Z,1.36
2017-12-05T02:17:04.530Z,1.4
2017-12-05T02:18:05.070Z,1.4
2017-12-05T02:19:04.470Z,1.33
2017-12-05T02:20:04.729Z,1.39
2017-12-05T02:21:04.721Z,1.4
2017-12-05T02:22:04.693Z,1.39
2017-12-05T02:23:04.402Z,1.39
2017-12-05T02:24:04.398Z,1.33
2017-12-05T02:25:04.932Z,1.42
2017-12-05T02:26:04.353Z,1.39
2017-12-05T02:27:04.604Z,1.35
2017-12-05T02:28:04.587Z,1.33
2017-12-05T02:29:04.863Z,1.3
2017-12-05T02:30:04.554Z,1.39
2017-12-05T02:31:04.265Z,1.38
2017-12-05T02:32:04.537Z,1.39
2017-12-05T02:33:04.502Z,1.29
2017-12-05T02:34:04.488Z,1.38
2017-12-05T02:35:04.217Z,1.33
2017-12-05T02:36:04.455Z,1.28
2017-12-05T02:37:04.161Z,1.22
2017-12-05T02:38:04.409Z,1.29
2017-12-05T02:39:04.136Z,1.26
2017-12-05T02:40:04.395Z,1.3
2017-12-05T02:41:04.083Z,1.3
2017-12-05T02:42:04.340Z,1.3
2017-12-05T02:43:04.595Z,1.28
2017-12-05T02:44:04.031Z,1.21
2017-12-05T02:45:04.290Z,1.28
2017-12-05T02:46:04.019Z,1.29
2017-12-05T02:47:03.984Z,1.2
2017-12-05T02:48:04.236Z,1.22
2017-12-05T02:49:03.946Z,1.18
2017-12-05T02:50:03.931Z,1.2
2017-12-05T02:51:04.450Z,1.21
2017-12-05T02:52:04.167Z,1.21
2017-12-05T02:53:04.145Z,1.21
2017-12-05T02:54:04.399Z,1.15
2017-12-05T02:55:04.129Z,1.12
2017-12-05T02:56:04.109Z,1.21
2017-12-05T02:57:03.810Z,1.22
2017-12-05T02:58:03.790Z,1.18
2017-12-05T02:59:04.331Z,1.15
2017-12-05T03:00:03.766Z,1.14
2017-12-05T03:01:03.758Z,1.18
2017-12-05T03:02:04.010Z,1.15
2017-12-05T03:03:03.710Z,1.15
2017-12-05T03:04:03.692Z,1.12
2017-12-05T03:05:03.943Z,1.15
2017-12-05T03:06:03.923Z,1.17
2017-12-05T03:07:03.641Z,1.18
2017-12-05T03:08:03.619Z,1.21
2017-12-05T03:09:03.886Z,1.24
2017-12-05T03:10:03.855Z,1.15
2017-12-05T03:11:03.589Z,1.18
2017-12-05T03:12:04.098Z,1.18
2017-12-05T03:13:03.522Z,1.2
2017-12-05T03:14:03.773Z,1.18
2017-12-05T03:15:03.772Z,1.21
2017-12-05T03:16:04.053Z,1.24
2017-12-05T03:17:04.002Z,1.22
2017-12-05T03:18:03.979Z,1.21
2017-12-05T03:19:03.692Z,1.22
2017-12-05T03:20:03.943Z,1.18
2017-12-05T03:21:03.385Z,1.18
2017-12-05T03:22:03.640Z,1.18
2017-12-05T03:23:03.352Z,1.2
2017-12-05T03:24:03.330Z,1.24
2017-12-05T03:25:03.585Z,1.17
2017-12-05T03:26:03.572Z,1.28
2017-12-05T03:27:03.277Z,1.21
2017-12-05T03:28:03.541Z,1.2
2017-12-05T03:29:03.531Z,1.28
2017-12-05T03:30:03.229Z,1.3
2017-12-05T03:31:03.784Z,1.32
2017-12-05T03:32:03.493Z,1.15
2017-12-05T03:33:03.444Z,1.32
2017-12-05T03:34:03.178Z,1.2
2017-12-05T03:35:03.406Z,1.28
2017-12-05T03:36:03.122Z,1.32
2017-12-05T03:37:03.677Z,1.32
2017-12-05T03:38:03.373Z,1.32
2017-12-05T03:39:03.067Z,1.32
2017-12-05T03:40:03.591Z,1.39
2017-12-05T03:41:03.322Z,1.39
2017-12-05T03:42:03.295Z,1.39
2017-12-05T03:43:02.998Z,1.4
2017-12-05T03:44:03.252Z,1.42
2017-12-05T03:45:03.507Z,1.36
2017-12-05T03:46:03.216Z,1.36
2017-12-05T03:47:03.202Z,1.42
2017-12-05T03:48:03.225Z,1.42
2017-12-05T03:49:03.172Z,1.29
2017-12-05T03:50:03.147Z,1.51
2017-12-05T03:51:02.867Z,1.5
2017-12-05T03:52:02.843Z,1.5
2017-12-05T03:53:03.098Z,1.54
2017-12-05T03:54:03.078Z,1.47
2017-12-05T03:55:03.332Z,1.53
2017-12-05T03:56:03.041Z,1.53
2017-12-05T03:57:03.313Z,1.5
2017-12-05T03:58:03.010Z,1.44
2017-12-05T03:59:02.720Z,1.53
2017-12-05T04:00:02.749Z,1.4
2017-12-05T04:01:02.957Z,1.46
2017-12-05T04:02:03.238Z,1.4
2017-12-05T04:03:02.944Z,1.4
2017-12-05T04:04:03.177Z,1.54
2017-12-05T04:05:02.617Z,1.44
2017-12-05T04:06:03.148Z,1.46
2017-12-05T04:07:03.121Z,1.57
2017-12-05T04:08:02.578Z,1.47
2017-12-05T04:09:03.121Z,1.51
2017-12-05T04:10:02.807Z,1.48
2017-12-05T04:11:03.054Z,1.47
2017-12-05T04:12:02.767Z,1.51
2017-12-05T04:13:03.022Z,1.51
2017-12-05T04:14:02.462Z,1.48
2017-12-05T04:15:02.442Z,1.5
2017-12-05T04:16:02.423Z,1.51
2017-12-05T04:17:02.419Z,1.51
2017-12-05T04:18:02.392Z,1.47
2017-12-05T04:19:02.381Z,1.46
2017-12-05T04:20:02.380Z,1.47
2017-12-05T04:21:02.341Z,1.44
2017-12-05T04:22:02.325Z,1.5
2017-12-05T04:23:02.303Z,1.53
2017-12-05T04:24:02.288Z,1.51
2017-12-05T04:25:02.540Z,1.54
2017-12-05T04:26:02.258Z,1.53
2017-12-05T04:27:02.233Z,1.48
2017-12-05T04:28:02.498Z,1.6
2017-12-05T04:29:02.489Z,1.54
2017-12-05T04:30:02.199Z,1.58
2017-12-05T04:31:02.166Z,1.5
2017-12-05T04:32:02.420Z,1.58
2017-12-05T04:33:02.410Z,1.58
2017-12-05T04:34:02.384Z,1.58
2017-12-05T04:35:02.114Z,1.56
2017-12-05T04:36:02.351Z,1.61
2017-12-05T04:37:02.334Z,1.57
2017-12-05T04:38:02.046Z,1.54
2017-12-05T04:39:02.306Z,1.65
2017-12-05T04:40:02.008Z,1.61
2017-12-05T04:41:02.264Z,1.61
2017-12-05T04:42:02.253Z,1.54
2017-12-05T04:43:02.237Z,1.61
2017-12-05T04:44:02.502Z,1.6
2017-12-05T04:45:02.196Z,1.64
2017-12-05T04:46:01.904Z,1.56
2017-12-05T04:47:01.888Z,1.6
2017-12-05T04:48:02.415Z,1.65
2017-12-05T04:49:01.898Z,1.66
2017-12-05T04:50:02.120Z,1.66
2017-12-05T04:51:01.820Z,1.69
2017-12-05T04:52:01.801Z,1.65
2017-12-05T04:53:02.335Z,1.64
2017-12-05T04:54:02.042Z,1.66
2017-12-05T04:55:01.760Z,1.72
2017-12-05T04:56:01.734Z,1.61
2017-12-05T04:57:01.736Z,1.72
2017-12-05T04:58:01.698Z,1.72
2017-12-05T04:59:01.681Z,1.71
2017-12-05T05:00:01.664Z,1.69
2017-12-05T05:01:01.668Z,1.79
2017-12-05T05:02:01.905Z,1.74
2017-12-05T05:03:01.880Z,1.75
2017-12-05T05:04:01.866Z,1.71
2017-12-05T05:05:01.582Z,1.76
2017-12-05T05:06:01.831Z,1.74
2017-12-05T05:07:01.822Z,1.76
2017-12-05T05:08:01.796Z,1.71
2017-12-05T05:09:01.509Z,1.72
2017-12-05T05:10:01.780Z,1.76
2017-12-05T05:11:01.767Z,1.74
2017-12-05T05:12:01.458Z,1.83
2017-12-05T05:13:01.440Z,1.71
2017-12-05T05:14:01.697Z,1.75
2017-12-05T05:15:01.408Z,1.72
2017-12-05T05:16:01.685Z,1.71
2017-12-05T05:17:01.920Z,1.68
2017-12-05T05:18:01.625Z,1.68
2017-12-05T05:19:01.354Z,1.74
2017-12-05T05:20:01.610Z,1.75
2017-12-05T05:21:01.302Z,1.68
2017-12-05T05:22:01.857Z,1.71
2017-12-05T05:23:01.829Z,1.68
2017-12-05T05:24:01.522Z,1.6
2017-12-05T05:25:01.231Z,1.76
2017-12-05T05:26:01.496Z,1.74
2017-12-05T05:27:01.486Z,1.71
2017-12-05T05:28:01.181Z,1.75
2017-12-05T05:29:01.435Z,1.75
2017-12-05T05:30:01.433Z,1.57
2017-12-05T05:31:01.135Z,1.56
2017-12-05T05:32:01.668Z,1.61
2017-12-05T05:33:01.212Z,1.57
2017-12-05T05:34:01.161Z,1.57
2017-12-05T05:35:01.339Z,1.69
2017-12-05T05:36:01.316Z,1.65
2017-12-05T05:37:01.070Z,1.61
2017-12-05T05:38:01.558Z,1.71
2017-12-05T05:39:01.541Z,1.61
2017-12-05T05:40:00.975Z,1.57
2017-12-05T05:41:01.243Z,1.66
2017-12-05T05:42:01.214Z,1.69
2017-12-05T05:43:00.926Z,1.57
2017-12-05T05:44:00.909Z,1.57
2017-12-05T05:45:01.165Z,1.66
2017-12-05T05:46:01.146Z,1.65
2017-12-05T05:47:00.860Z,1.65
2017-12-05T05:48:00.840Z,1.56
2017-12-05T05:49:01.092Z,1.69
2017-12-05T05:50:01.099Z,1.69
2017-12-05T05:51:00.788Z,1.56
2017-12-05T05:52:01.042Z,1.57
2017-12-05T05:53:01.028Z,1.65
2017-12-05T05:54:00.744Z,1.66
2017-12-05T05:55:01.024Z,1.72
2017-12-05T05:56:00.973Z,1.74
2017-12-05T05:57:01.001Z,1.66
2017-12-05T05:58:00.674Z,1.6
2017-12-05T05:59:01.213Z,1.6
2017-12-05T06:00:00.916Z,1.65
2017-12-05T06:01:00.887Z,1.6
2017-12-05T06:02:00.894Z,1.61
2017-12-05T06:03:00.589Z,1.66
2017-12-05T06:04:00.571Z,1.61
2017-12-05T06:05:00.819Z,1.58
2017-12-05T06:06:00.530Z,1.53
2017-12-05T06:07:00.796Z,1.58
2017-12-05T06:08:00.772Z,1.57
2017-12-05T06:09:00.477Z,1.57
2017-12-05T06:10:00.736Z,1.56
2017-12-05T06:11:00.446Z,1.51
2017-12-05T06:12:00.428Z,1.6
2017-12-05T06:13:00.852Z,1.56
2017-12-05T06:14:00.664Z,1.54
2017-12-05T06:15:00.649Z,1.56
2017-12-05T06:16:00.638Z,1.5
2017-12-05T06:17:00.341Z,1.51
2017-12-05T06:18:00.325Z,1.54
2017-12-05T06:19:00.307Z,1.53
2017-12-05T06:20:00.831Z,1.54
2017-12-05T06:21:00.815Z,1.46
2017-12-05T06:22:00.259Z,1.56
2017-12-05T06:23:00.239Z,1.48
2017-12-05T06:24:00.221Z,1.54
2017-12-05T06:25:00.495Z,1.48
2017-12-05T06:26:00.458Z,1.47
2017-12-05T06:27:00.169Z,1.44
2017-12-05T06:28:00.175Z,1.47
2017-12-05T06:29:00.409Z,1.48
2017-12-05T06:30:00.119Z,1.5
2017-12-05T06:31:00.375Z,1.51
2017-12-05T06:32:00.358Z,1.54
2017-12-05T06:33:00.364Z,1.48
2017-12-05T06:34:00.367Z,1.46
2017-12-05T06:35:00.303Z,1.56
2017-12-05T06:36:00.285Z,1.47
2017-12-05T06:36:59.996Z,1.51
2017-12-05T06:38:00.250Z,1.5
2017-12-05T06:39:00.270Z,1.56
2017-12-05T06:39:59.945Z,1.57
2017-12-05T06:40:59.951Z,1.56
2017-12-05T06:41:59.911Z,1.57
2017-12-05T06:43:00.455Z,1.57
2017-12-05T06:43:59.888Z,1.54
2017-12-05T06:44:59.868Z,1.56
2017-12-05T06:45:59.841Z,1.47
2017-12-05T06:47:00.115Z,1.53
2017-12-05T06:48:00.078Z,1.58
2017-12-05T06:48:59.789Z,1.48
2017-12-05T06:50:00.315Z,1.46
2017-12-05T06:50:59.767Z,1.46
2017-12-05T06:52:00.011Z,1.51
2017-12-05T06:52:59.991Z,1.54
2017-12-05T06:53:59.703Z,1.54
2017-12-05T06:54:59.967Z,1.56
2017-12-05T06:55:59.683Z,1.56
2017-12-05T06:56:59.927Z,1.58
2017-12-05T06:57:59.638Z,1.57
2017-12-05T06:58:59.623Z,1.58
2017-12-05T06:59:59.601Z,1.57
2017-12-05T07:00:59.582Z,1.56
2017-12-05T07:01:59.565Z,1.53
2017-12-05T07:02:59.830Z,1.57
2017-12-05T07:04:00.090Z,1.6
2017-12-05T07:04:59.787Z,1.65
2017-12-05T07:05:59.765Z,1.64
2017-12-05T07:06:59.478Z,1.6
2017-12-05T07:07:59.783Z,1.56
2017-12-05T07:08:59.715Z,1.65
2017-12-05T07:09:59.716Z,1.65
2017-12-05T07:10:59.741Z,1.66
2017-12-05T07:11:59.393Z,1.6
2017-12-05T07:12:59.649Z,1.65
2017-12-05T07:13:59.626Z,1.6
2017-12-05T07:14:59.666Z,1.6
2017-12-05T07:15:59.599Z,1.61
2017-12-05T07:16:59.579Z,1.68
2017-12-05T07:17:59.311Z,1.75
2017-12-05T07:18:59.543Z,1.58
2017-12-05T07:19:59.552Z,1.66
2017-12-05T07:20:59.510Z,1.66
2017-12-05T07:21:59.497Z,1.74
2017-12-05T07:22:59.475Z,1.68
2017-12-05T07:23:59.457Z,1.6
2017-12-05T07:24:59.185Z,1.74
2017-12-05T07:25:59.165Z,1.75
2017-12-05T07:26:59.405Z,1.74
2017-12-05T07:27:59.396Z,1.69
2017-12-05T07:28:59.098Z,1.78
2017-12-05T07:29:59.083Z,1.76
2017-12-05T07:30:59.096Z,1.72
2017-12-05T07:31:59.589Z,1.72
2017-12-05T07:32:59.031Z,1.74
2017-12-05T07:33:59.015Z,1.76
2017-12-05T07:34:59.581Z,1.82
2017-12-05T07:35:58.976Z,1.72
2017-12-05T07:36:59.231Z,1.74
2017-12-05T07:37:59.491Z,1.87
2017-12-05T07:38:59.199Z,1.87
2017-12-05T07:39:59.197Z,1.82
2017-12-05T07:40:59.435Z,1.83
2017-12-05T07:41:58.880Z,1.84
2017-12-05T07:42:59.127Z,1.84
2017-12-05T07:43:59.120Z,1.84
2017-12-05T07:44:58.823Z,1.87
2017-12-05T07:45:58.808Z,1.87
2017-12-05T07:46:59.336Z,1.82
2017-12-05T07:47:59.055Z,1.86
2017-12-05T07:48:58.755Z,1.83
2017-12-05T07:49:58.738Z,1.84
2017-12-05T07:50:59.267Z,1.86
2017-12-05T07:51:58.711Z,1.82
2017-12-05T07:52:58.699Z,1.84
2017-12-05T07:53:58.953Z,1.87
2017-12-05T07:54:58.927Z,1.86
2017-12-05T07:55:58.690Z,1.75
2017-12-05T07:56:58.633Z,1.83
2017-12-05T07:57:58.901Z,1.75
2017-12-05T07:58:58.586Z,1.72
2017-12-05T07:59:58.886Z,1.72
2017-12-05T08:00:58.550Z,1.74
2017-12-05T08:01:58.692Z,1.71
2017-12-05T08:02:58.516Z,1.71
2017-12-05T08:03:58.770Z,1.69
2017-12-05T08:04:58.762Z,1.75
2017-12-05T08:05:58.734Z,1.71
2017-12-05T08:06:58.721Z,1.78
2017-12-05T08:07:58.702Z,1.78
2017-12-05T08:08:58.706Z,1.74
2017-12-05T08:09:58.988Z,1.69
2017-12-05T08:10:58.921Z,1.74
2017-12-05T08:11:58.361Z,1.75
2017-12-05T08:12:58.658Z,1.76
2017-12-05T08:13:58.597Z,1.75
2017-12-05T08:14:59.687Z,1.69
2017-12-05T08:15:58.291Z,1.78
2017-12-05T08:16:58.274Z,1.74
2017-12-05T08:17:58.809Z,1.71
2017-12-05T08:18:58.512Z,1.83
2017-12-05T08:19:58.227Z,1.75
2017-12-05T08:20:58.480Z,1.75
2017-12-05T08:21:58.463Z,1.74
2017-12-05T08:22:58.177Z,1.75
2017-12-05T08:23:58.179Z,1.72
2017-12-05T08:24:58.687Z,1.72
2017-12-05T08:25:58.397Z,1.72
2017-12-05T08:26:58.655Z,1.72
2017-12-05T08:27:58.086Z,1.83
2017-12-05T08:28:58.614Z,1.74
2017-12-05T08:29:58.334Z,1.74
2017-12-05T08:30:58.036Z,1.75
2017-12-05T08:31:58.022Z,1.84
2017-12-05T08:32:58.294Z,1.72
2017-12-05T08:33:58.259Z,1.83
2017-12-05T08:34:58.237Z,1.86
2017-12-05T08:35:58.220Z,1.82
2017-12-05T08:36:57.936Z,1.83
2017-12-05T08:37:58.198Z,1.84
2017-12-05T08:38:57.917Z,1.82
2017-12-05T08:39:58.179Z,1.82
2017-12-05T08:40:58.407Z,1.86
2017-12-05T08:41:57.847Z,1.86
2017-12-05T08:42:58.098Z,1.83
2017-12-05T08:43:58.087Z,1.83
2017-12-05T08:44:58.073Z,1.89
2017-12-05T08:45:58.049Z,1.87
2017-12-05T08:46:57.765Z,1.86
2017-12-05T08:47:57.745Z,1.86
2017-12-05T08:48:58.017Z,1.83
2017-12-05T08:49:57.727Z,1.86
2017-12-05T08:50:57.695Z,1.89
2017-12-05T08:51:57.678Z,1.86
2017-12-05T08:52:57.931Z,1.87
2017-12-05T08:53:57.922Z,1.76
2017-12-05T08:54:57.901Z,1.86
2017-12-05T08:55:57.665Z,1.86
2017-12-05T08:56:57.864Z,1.82
2017-12-05T08:57:57.575Z,1.89
2017-12-05T08:58:57.581Z,1.87
2017-12-05T08:59:57.818Z,1.92
2017-12-05T09:00:57.541Z,1.83
2017-12-05T09:01:57.508Z,1.84
2017-12-05T09:02:57.491Z,1.89
2017-12-05T09:03:57.492Z,1.93
2017-12-05T09:04:57.466Z,1.94
2017-12-05T09:05:57.474Z,1.89
2017-12-05T09:06:57.714Z,1.93
2017-12-05T09:07:57.952Z,1.87
2017-12-05T09:08:57.666Z,1.93
2017-12-05T09:09:57.643Z,1.87
2017-12-05T09:10:57.354Z,1.87
2017-12-05T09:11:57.622Z,1.89
2017-12-05T09:12:57.320Z,1.97
2017-12-05T09:13:57.596Z,1.9
2017-12-05T09:14:57.555Z,1.94
2017-12-05T09:15:57.563Z,1.92
2017-12-05T09:16:57.261Z,1.92
2017-12-05T09:17:57.239Z,1.92
2017-12-05T09:18:57.539Z,1.97
2017-12-05T09:19:57.495Z,2.02
2017-12-05T09:20:57.194Z,1.97
2017-12-05T09:21:57.711Z,2.01
2017-12-05T09:22:57.700Z,1.98
2017-12-05T09:23:57.676Z,1.93
2017-12-05T09:24:57.388Z,2.06
2017-12-05T09:25:57.109Z,2.06
2017-12-05T09:26:57.084Z,2.11
2017-12-05T09:27:57.608Z,2.08
2017-12-05T09:28:57.051Z,2.08
2017-12-05T09:29:57.309Z,2.09
2017-12-05T09:31:01.091Z,2.11
2017-12-05T09:31:57.013Z,2.06
2017-12-05T09:32:56.981Z,2.15
2017-12-05T09:33:57.237Z,2.05
2017-12-05T09:34:56.949Z,2.15
2017-12-05T09:35:57.217Z,2.15
2017-12-05T09:36:56.914Z,2.2
2017-12-05T09:37:56.919Z,2.12
2017-12-05T09:38:56.882Z,2.05
2017-12-05T09:39:56.863Z,2.15
2017-12-05T09:40:57.120Z,2.08
2017-12-05T09:41:57.106Z,2.12
2017-12-05T09:42:56.814Z,2.11
2017-12-05T09:43:57.273Z,2.08
2017-12-05T09:44:56.780Z,2.2
2017-12-05T09:45:56.768Z,2.12
2017-12-05T09:46:56.748Z,2.16
2017-12-05T09:47:57.272Z,2.18
2017-12-05T09:48:56.988Z,2.12
2017-12-05T09:49:56.986Z,2.18
2017-12-05T09:50:57.229Z,2.13
2017-12-05T09:51:57.086Z,2.16
2017-12-05T09:52:56.920Z,2.11
2017-12-05T09:53:56.627Z,2.2
2017-12-05T09:54:56.888Z,2.22
2017-12-05T09:55:56.884Z,2.24
2017-12-05T09:56:56.853Z,2.16
2017-12-05T09:57:56.558Z,2.24
2017-12-05T09:58:56.542Z,2.15
2017-12-05T09:59:56.816Z,2.29
2017-12-05T10:00:56.513Z,2.27
2017-12-05T10:01:56.517Z,2.23
2017-12-05T10:02:56.750Z,2.2
2017-12-05T10:03:57.005Z,2.16
2017-12-05T10:04:56.445Z,2.16
2017-12-05T10:05:56.719Z,2.24
2017-12-05T10:06:56.962Z,2.27
2017-12-05T10:07:56.664Z,2.24
2017-12-05T10:08:56.667Z,2.22
2017-12-05T10:09:56.367Z,2.24
2017-12-05T10:10:56.360Z,2.23
2017-12-05T10:11:56.331Z,2.22
2017-12-05T10:12:56.580Z,2.22
2017-12-05T10:13:56.564Z,2.15
2017-12-05T10:14:56.298Z,2.15
2017-12-05T10:15:56.866Z,2.24
2017-12-05T10:16:56.798Z,2.22
2017-12-05T10:17:56.242Z,2.23
2017-12-05T10:18:56.492Z,2.16
2017-12-05T10:19:56.479Z,2.23
2017-12-05T10:20:56.196Z,2.26
2017-12-05T10:21:56.430Z,2.12
2017-12-05T10:22:56.421Z,2.24
2017-12-05T10:23:56.412Z,2.16
2017-12-05T10:24:56.381Z,2.26
2017-12-05T10:25:56.635Z,2.16
2017-12-05T10:26:56.631Z,2.13
2017-12-05T10:27:56.061Z,2.26
2017-12-05T10:28:56.330Z,2.22
2017-12-05T10:29:56.028Z,2.26
2017-12-05T10:30:56.301Z,2.22
2017-12-05T10:31:56.230Z,2.27
2017-12-05T10:32:56.407Z,2.27
2017-12-05T10:33:56.179Z,2.31
2017-12-05T10:34:56.132Z,2.29
2017-12-05T10:35:56.198Z,2.26
2017-12-05T10:36:56.192Z,2.3
2017-12-05T10:37:55.909Z,2.29
2017-12-05T10:38:56.151Z,2.29
2017-12-05T10:39:55.866Z,2.33
2017-12-05T10:40:55.866Z,2.36
2017-12-05T10:41:55.841Z,2.4
2017-12-05T10:42:56.438Z,2.3
2017-12-05T10:43:55.811Z,2.3
2017-12-05T10:44:56.127Z,2.33
2017-12-05T10:45:56.374Z,2.3
2017-12-05T10:46:56.061Z,2.38
2017-12-05T10:47:56.277Z,2.36
2017-12-05T10:48:55.984Z,2.36
2017-12-05T10:49:55.696Z,2.38
2017-12-05T10:50:56.011Z,2.36
2017-12-05T10:51:55.958Z,2.4
2017-12-05T10:52:55.927Z,2.34
2017-12-05T10:53:55.628Z,2.36
2017-12-05T10:54:56.156Z,2.4
2017-12-05T10:55:55.623Z,2.36
2017-12-05T10:56:55.851Z,2.4
2017-12-05T10:57:55.836Z,2.45
2017-12-05T10:58:55.842Z,2.3
2017-12-05T10:59:55.532Z,2.31
2017-12-05T11:00:55.604Z,2.31
2017-12-05T11:01:55.773Z,2.31
2017-12-05T11:02:55.752Z,2.38
2017-12-05T11:03:55.468Z,2.34
2017-12-05T11:04:56.001Z,2.41
2017-12-05T11:05:55.715Z,2.42
2017-12-05T11:06:55.963Z,2.47
2017-12-05T11:07:55.398Z,2.51
2017-12-05T11:08:55.411Z,2.54
2017-12-05T11:09:55.674Z,2.45
2017-12-05T11:10:55.627Z,2.45
2017-12-05T11:11:55.603Z,2.49
2017-12-05T11:12:55.587Z,2.55
2017-12-05T11:13:55.572Z,2.58
2017-12-05T11:14:55.283Z,2.55
2017-12-05T11:15:55.539Z,2.58
2017-12-05T11:16:55.253Z,2.62
2017-12-05T11:17:55.235Z,2.59
2017-12-05T11:18:55.487Z,2.58
2017-12-05T11:19:55.482Z,2.44
2017-12-05T11:20:55.748Z,2.59
2017-12-05T11:21:55.731Z,2.58
2017-12-05T11:22:55.435Z,2.59
2017-12-05T11:23:55.136Z,2.51
2017-12-05T11:24:55.392Z,2.48
2017-12-05T11:25:55.290Z,2.54
2017-12-05T11:26:55.358Z,2.55
2017-12-05T11:27:55.119Z,2.55
2017-12-05T11:28:55.055Z,2.58
2017-12-05T11:29:55.308Z,2.54
2017-12-05T11:30:55.021Z,2.59
2017-12-05T11:31:55.275Z,2.58
2017-12-05T11:32:55.266Z,2.51
2017-12-05T11:33:55.245Z,2.49
2017-12-05T11:34:55.227Z,2.55
2017-12-05T11:35:55.246Z,2.51
2017-12-05T11:36:54.923Z,2.58
2017-12-05T11:37:54.907Z,2.58
2017-12-05T11:38:54.889Z,2.55
2017-12-05T11:39:54.876Z,2.44
2017-12-05T11:40:55.446Z,2.54
2017-12-05T11:41:55.113Z,2.48
2017-12-05T11:42:54.842Z,2.54
2017-12-05T11:43:55.356Z,2.55
2017-12-05T11:44:55.348Z,2.52
2017-12-05T11:45:54.801Z,2.55
2017-12-05T11:46:54.803Z,2.54
2017-12-05T11:47:54.742Z,2.54
2017-12-05T11:48:55.017Z,2.54
2017-12-05T11:49:54.987Z,2.63
2017-12-05T11:50:54.694Z,2.62
2017-12-05T11:51:55.233Z,2.69
2017-12-05T11:52:54.662Z,2.77
2017-12-05T11:53:55.191Z,2.67
2017-12-05T11:54:54.647Z,2.67
2017-12-05T11:55:54.893Z,2.69
2017-12-05T11:56:54.598Z,2.67
2017-12-05T11:57:54.580Z,2.65
2017-12-05T11:58:55.108Z,2.72
2017-12-05T11:59:54.823Z,2.7
2017-12-05T12:00:54.536Z,2.7
2017-12-05T12:01:54.797Z,2.72
2017-12-05T12:02:54.504Z,2.73
2017-12-05T12:03:55.025Z,2.83
2017-12-05T12:04:54.740Z,2.81
2017-12-05T12:05:54.450Z,2.84
2017-12-05T12:06:54.442Z,2.81
2017-12-05T12:07:54.993Z,2.84
2017-12-05T12:08:54.403Z,2.88
2017-12-05T12:09:54.659Z,2.84
2017-12-05T12:10:54.640Z,2.83
2017-12-05T12:11:54.355Z,2.81
2017-12-05T12:12:54.337Z,2.84
2017-12-05T12:13:54.613Z,2.85
2017-12-05T12:14:54.584Z,2.87
2017-12-05T12:15:54.580Z,2.83
2017-12-05T12:16:54.273Z,2.9
2017-12-05T12:17:54.796Z,2.9
2017-12-05T12:18:54.543Z,2.88
2017-12-05T12:19:54.497Z,2.88
2017-12-05T12:20:54.207Z,2.95
2017-12-05T12:21:54.463Z,2.98
2017-12-05T12:22:54.718Z,3.01
2017-12-05T12:23:54.160Z,3.02
2017-12-05T12:24:54.150Z,2.93
2017-12-05T12:25:54.128Z,3.02
2017-12-05T12:26:54.114Z,3.02
2017-12-05T12:27:54.367Z,3.01
2017-12-05T12:28:54.351Z,3.11
2017-12-05T12:29:54.338Z,3.08
2017-12-05T12:30:54.337Z,2.96
2017-12-05T12:31:54.032Z,2.93
2017-12-05T12:32:54.025Z,2.88
2017-12-05T12:33:54.000Z,2.91
2017-12-05T12:34:54.262Z,2.83
2017-12-05T12:35:53.968Z,2.81
2017-12-05T12:36:53.975Z,2.81
2017-12-05T12:37:54.209Z,2.88
2017-12-05T12:38:54.192Z,2.84
2017-12-05T12:39:54.175Z,2.81
2017-12-05T12:40:53.897Z,2.83
2017-12-05T12:41:53.894Z,2.8
2017-12-05T12:42:53.858Z,2.91
2017-12-05T12:43:54.113Z,2.8
2017-12-05T12:44:54.122Z,2.91
2017-12-05T12:45:54.079Z,2.81
2017-12-05T12:46:54.061Z,2.78
2017-12-05T12:47:54.046Z,2.83
2017-12-05T12:48:54.049Z,2.83
2017-12-05T12:49:53.745Z,2.81
2017-12-05T12:50:53.742Z,2.85
2017-12-05T12:51:53.712Z,2.8
2017-12-05T12:52:53.696Z,2.91
2017-12-05T12:53:54.244Z,2.78
2017-12-05T12:54:53.677Z,2.85
2017-12-05T12:55:54.192Z,2.87
2017-12-05T12:56:53.634Z,2.85
2017-12-05T12:57:53.624Z,2.96
2017-12-05T12:58:53.870Z,2.88
2017-12-05T12:59:54.148Z,2.85
2017-12-05T13:00:53.840Z,2.88
2017-12-05T13:01:53.822Z,2.9
2017-12-05T13:02:53.536Z,2.9
2017-12-05T13:03:53.800Z,2.88
2017-12-05T13:04:54.058Z,2.88
2017-12-05T13:05:53.761Z,2.85
2017-12-05T13:06:53.747Z,2.81
2017-12-05T13:07:53.726Z,2.84
2017-12-05T13:08:53.439Z,2.77
2017-12-05T13:09:53.696Z,2.76
2017-12-05T13:10:53.685Z,2.69
2017-12-05T13:11:53.664Z,2.72
2017-12-05T13:12:53.704Z,2.66
2017-12-05T13:13:53.648Z,2.6
2017-12-05T13:14:53.753Z,2.58
2017-12-05T13:15:53.596Z,2.58
2017-12-05T13:16:53.858Z,2.54
2017-12-05T13:17:53.299Z,2.65
2017-12-05T13:18:53.821Z,2.54
2017-12-05T13:19:53.261Z,2.55
2017-12-05T13:20:53.246Z,2.58